createdAt,value
2023-02-06T00:02:47.899Z,57.59
2023-02-06T00:07:50.650Z,58.51
2023-02-06T00:12:53.218Z,59.14
2023-02-06T00:17:55.758Z,60.28
2023-02-06T00:22:58.752Z,68.58
2023-02-06T00:28:01.431Z,72.37
2023-02-06T00:33:04.168Z,66.95
2023-02-06T00:38:08.141Z,62.77
2023-02-06T00:43:11.106Z,58.54
2023-02-06T00:48:16.612Z,52.40
2023-02-06T00:53:19.607Z,53.66
2023-02-06T00:58:22.397Z,55.26
2023-02-06T01:03:28.881Z,57.07
2023-02-06T01:08:31.490Z,58.42
2023-02-06T01:13:34.053Z,59.57
2023-02-06T01:18:37.601Z,61.18
2023-02-06T01:23:41.264Z,71.18
2023-02-06T01:28:46.421Z,70.48
2023-02-06T01:33:51.378Z,61.10
2023-02-06T01:38:53.991Z,54.33
2023-02-06T01:44:18.366Z,55.49
2023-02-06T01:49:43.576Z,57.58
2023-02-06T01:54:50.198Z,58.71
2023-02-06T01:59:58.775Z,59.34
2023-02-06T02:05:03.563Z,59.95
2023-02-06T02:10:06.368Z,69.38
2023-02-06T02:15:09.270Z,69.92
2023-02-06T02:20:30.626Z,62.77
2023-02-06T02:25:56.976Z,57.72
2023-02-06T02:31:30.944Z,53.49
2023-02-06T02:37:00.738Z,55.80
2023-02-06T02:42:38.434Z,57.44
2023-02-06T02:48:13.925Z,59.28
2023-02-06T02:53:16.955Z,60.35
2023-02-06T02:58:28.024Z,70.01
2023-02-06T03:03:53.007Z,69.84
2023-02-06T03:09:19.060Z,61.39
2023-02-06T03:14:30.398Z,53.59
2023-02-06T03:19:37.767Z,55.73
2023-02-06T03:24:40.355Z,57.99
2023-02-06T03:29:44.894Z,58.63
2023-02-06T03:35:13.969Z,60.58
2023-02-06T03:40:17.945Z,70.41
2023-02-06T03:45:42.493Z,69.54
2023-02-06T03:50:47.986Z,63.29
2023-02-06T03:55:54.232Z,58.73
2023-02-06T04:00:57.292Z,54.37
2023-02-06T04:06:00.604Z,55.95
2023-02-06T04:11:03.310Z,58.55
2023-02-06T04:16:05.946Z,59.39
2023-02-06T04:21:08.788Z,60.88
2023-02-06T04:26:11.479Z,69.74
2023-02-06T04:31:14.667Z,69.69
2023-02-06T04:36:17.376Z,63.14
2023-02-06T04:41:19.930Z,60.56
2023-02-06T04:46:22.533Z,54.63
2023-02-06T04:51:25.273Z,54.60
2023-02-06T04:56:27.874Z,56.90
2023-02-06T05:01:30.962Z,58.65
2023-02-06T05:06:33.674Z,59.79
2023-02-06T05:11:36.234Z,61.30
2023-02-06T05:16:39.108Z,69.71
2023-02-06T05:21:41.849Z,71.66
2023-02-06T05:26:46.366Z,67.20
2023-02-06T05:31:49.062Z,62.06
2023-02-06T05:36:51.645Z,56.17
2023-02-06T05:41:54.199Z,55.40
2023-02-06T05:46:56.828Z,56.78
2023-02-06T05:51:59.518Z,58.33
2023-02-06T05:57:02.380Z,65.77
2023-02-06T06:02:04.944Z,68.34
2023-02-06T06:07:08.447Z,63.35
2023-02-06T06:12:11.123Z,60.67
2023-02-06T06:17:14.248Z,54.19
2023-02-06T06:22:17.034Z,54.90
2023-02-06T06:27:19.588Z,57.00
2023-02-06T06:32:22.150Z,59.40
2023-02-06T06:37:24.704Z,60.45
2023-02-06T06:42:27.269Z,68.85
2023-02-06T06:47:29.837Z,69.47
2023-02-06T06:52:32.904Z,64.08
2023-02-06T06:57:35.680Z,59.84
2023-02-06T07:02:38.415Z,53.71
2023-02-06T07:07:41.144Z,55.11
2023-02-06T07:12:43.921Z,56.94
2023-02-06T07:17:46.778Z,57.82
2023-02-06T07:22:50.265Z,60.85
2023-02-06T07:27:53.025Z,67.84
2023-02-06T07:32:55.604Z,66.58
2023-02-06T07:37:58.137Z,57.15
2023-02-06T07:43:00.981Z,53.75
2023-02-06T07:48:05.245Z,54.55
2023-02-06T07:53:08.005Z,62.46
2023-02-06T07:58:13.647Z,62.08
2023-02-06T08:03:16.300Z,55.21
2023-02-06T08:08:18.999Z,55.92
2023-02-06T08:13:21.609Z,56.23
2023-02-06T08:18:27.294Z,58.41
2023-02-06T08:23:29.952Z,60.06
2023-02-06T08:28:32.601Z,63.19
2023-02-06T08:33:35.333Z,69.65
2023-02-06T08:38:38.449Z,64.57
2023-02-06T08:43:41.014Z,58.36
2023-02-06T08:48:43.968Z,53.70
2023-02-06T08:53:46.609Z,55.09
2023-02-06T08:58:49.159Z,56.83
2023-02-06T09:03:56.722Z,58.38
2023-02-06T09:08:59.556Z,59.35
2023-02-06T09:14:06.187Z,60.52
2023-02-06T09:19:10.620Z,61.20
2023-02-06T09:24:13.216Z,65.93
2023-02-06T09:29:15.786Z,65.87
2023-02-06T09:34:18.409Z,57.82
2023-02-06T09:39:20.982Z,52.44
2023-02-06T09:44:45.471Z,53.31
2023-02-06T09:49:51.804Z,54.08
2023-02-06T09:55:12.753Z,55.83
2023-02-06T10:00:34.078Z,62.99
2023-02-06T10:05:42.829Z,60.67
2023-02-06T10:10:53.065Z,51.40
2023-02-06T10:16:11.834Z,51.00
2023-02-06T10:21:45.198Z,55.56
2023-02-06T10:26:52.204Z,54.98
2023-02-06T10:31:59.606Z,55.44
2023-02-06T10:37:14.782Z,56.26
2023-02-06T10:42:24.547Z,58.10
2023-02-06T10:47:39.679Z,59.45
2023-02-06T10:52:44.029Z,58.72
2023-02-06T10:57:50.715Z,58.60
2023-02-06T11:03:08.156Z,59.80
2023-02-06T11:08:20.812Z,65.51
2023-02-06T11:13:28.104Z,61.33
2023-02-06T11:18:43.262Z,51.32
2023-02-06T11:23:47.364Z,49.58
2023-02-06T11:29:07.866Z,51.78
2023-02-06T11:34:25.116Z,54.84
2023-02-06T11:39:32.065Z,54.34
2023-02-06T11:44:40.550Z,55.64
2023-02-06T11:49:43.116Z,57.28
2023-02-06T11:54:54.372Z,56.91
2023-02-06T12:00:18.593Z,56.97
2023-02-06T12:05:26.543Z,57.39
2023-02-06T12:10:35.672Z,58.15
2023-02-06T12:15:47.861Z,58.17
2023-02-06T12:21:03.789Z,58.25
2023-02-06T12:26:14.680Z,58.53
2023-02-06T12:31:27.452Z,58.67
2023-02-06T12:36:51.049Z,58.21
2023-02-06T12:42:13.356Z,58.46
2023-02-06T12:47:34.436Z,58.08
2023-02-06T12:53:02.646Z,62.42
2023-02-06T12:58:20.736Z,67.75
2023-02-06T13:03:44.016Z,59.44
2023-02-06T13:09:07.130Z,50.74
2023-02-06T13:14:28.442Z,54.09
2023-02-06T13:19:52.830Z,55.62
2023-02-06T13:24:57.355Z,55.49
2023-02-06T13:30:34.675Z,55.15
2023-02-06T13:36:00.732Z,56.33
2023-02-06T13:41:28.002Z,57.38
2023-02-06T13:46:50.697Z,58.00
2023-02-06T13:52:03.857Z,59.15
2023-02-06T13:57:29.199Z,58.99
2023-02-06T14:02:39.526Z,67.22
2023-02-06T14:08:06.932Z,63.81
2023-02-06T14:13:38.900Z,53.88
2023-02-06T14:18:44.431Z,51.62
2023-02-06T14:24:08.718Z,52.54
2023-02-06T14:29:33.925Z,54.73
2023-02-06T14:34:44.872Z,55.83
2023-02-06T14:40:04.404Z,56.73
2023-02-06T14:46:07.927Z,57.79
2023-02-06T14:51:25.316Z,57.01
2023-02-06T14:56:36.326Z,57.91
2023-02-06T15:01:40.453Z,58.96
2023-02-06T15:06:53.905Z,60.28
2023-02-06T15:12:03.367Z,67.34
2023-02-06T15:17:05.896Z,68.43
2023-02-06T15:22:15.740Z,61.40
2023-02-06T15:27:37.754Z,53.05
2023-02-06T15:32:40.470Z,53.83
2023-02-06T15:37:43.180Z,55.64
2023-02-06T15:42:48.882Z,57.99
2023-02-06T15:47:53.509Z,59.12
2023-02-06T15:52:56.399Z,59.95
2023-02-06T15:58:02.073Z,61.23
2023-02-06T16:03:19.803Z,67.50
2023-02-06T16:08:28.867Z,68.82
2023-02-06T16:13:33.272Z,67.18
2023-02-06T16:18:42.947Z,61.64
2023-02-06T16:24:07.269Z,54.60
2023-02-06T16:29:10.085Z,54.57
2023-02-06T16:34:32.231Z,56.28
2023-02-06T16:39:34.864Z,57.54
2023-02-06T16:44:44.571Z,58.95
2023-02-06T16:49:48.434Z,60.94
2023-02-06T16:54:52.183Z,60.95
2023-02-06T16:59:55.118Z,64.39
2023-02-06T17:04:57.816Z,71.66
2023-02-06T17:10:03.887Z,67.46
2023-02-06T17:15:07.209Z,62.39
2023-02-06T17:20:36.340Z,56.93
2023-02-06T17:25:40.236Z,54.87
2023-02-06T17:30:43.659Z,57.11
2023-02-06T17:35:50.640Z,59.94
2023-02-06T17:40:53.558Z,60.29
2023-02-06T17:45:56.223Z,65.46
2023-02-06T17:50:58.907Z,69.65
2023-02-06T17:56:14.262Z,65.78
2023-02-06T18:01:19.834Z,60.57
2023-02-06T18:06:25.636Z,55.33
2023-02-06T18:11:29.398Z,57.84
2023-02-06T18:16:32.238Z,59.17
2023-02-06T18:21:37.192Z,66.13
2023-02-06T18:26:39.736Z,67.44
2023-02-06T18:31:42.421Z,62.59
2023-02-06T18:36:46.457Z,58.71
2023-02-06T18:42:07.451Z,54.14
2023-02-06T18:47:12.037Z,55.98
2023-02-06T18:52:15.083Z,57.98
2023-02-06T18:57:17.619Z,59.11
2023-02-06T19:02:20.188Z,61.77
2023-02-06T19:07:22.728Z,69.55
2023-02-06T19:12:28.399Z,69.88
2023-02-06T19:17:32.124Z,65.63
2023-02-06T19:22:38.406Z,61.79
2023-02-06T19:27:41.043Z,56.07
2023-02-06T19:32:43.739Z,56.71
2023-02-06T19:37:46.288Z,58.51
2023-02-06T19:42:49.024Z,59.63
2023-02-06T19:47:51.524Z,66.40
2023-02-06T19:52:54.004Z,69.60
2023-02-06T19:57:56.726Z,63.80
2023-02-06T20:03:00.872Z,60.02
2023-02-06T20:08:05.352Z,54.94
2023-02-06T20:13:08.266Z,56.38
2023-02-06T20:18:10.913Z,57.70
2023-02-06T20:23:15.565Z,58.79
2023-02-06T20:28:18.772Z,60.26
2023-02-06T20:33:21.285Z,66.87
2023-02-06T20:38:23.831Z,71.26
2023-02-06T20:43:26.519Z,66.33
2023-02-06T20:48:29.374Z,63.35
2023-02-06T20:53:32.493Z,61.78
2023-02-06T20:58:35.015Z,55.58
2023-02-06T21:03:46.274Z,56.38
2023-02-06T21:08:51.461Z,58.21
2023-02-06T21:13:54.406Z,60.12
2023-02-06T21:18:58.480Z,66.16
2023-02-06T21:24:03.087Z,68.84
2023-02-06T21:29:08.185Z,64.58
2023-02-06T21:34:17.143Z,61.24
2023-02-06T21:39:22.580Z,56.75
2023-02-06T21:44:26.690Z,57.45
2023-02-06T21:49:30.086Z,59.04
2023-02-06T21:54:32.575Z,65.80
2023-02-06T21:59:36.385Z,68.68
2023-02-06T22:04:39.135Z,64.44
2023-02-06T22:09:41.821Z,60.70
2023-02-06T22:14:44.709Z,56.90
2023-02-06T22:19:48.829Z,57.90
2023-02-06T22:24:51.632Z,60.01
2023-02-06T22:29:54.698Z,65.88
2023-02-06T22:35:00.384Z,68.53
2023-02-06T22:40:03.126Z,64.70
2023-02-06T22:45:06.454Z,61.62
2023-02-06T22:50:09.124Z,58.21
2023-02-06T22:55:12.099Z,55.97
2023-02-06T23:00:16.823Z,58.33
2023-02-06T23:05:19.870Z,60.31
2023-02-06T23:10:22.387Z,67.29
2023-02-06T23:15:24.921Z,67.49
2023-02-06T23:20:27.496Z,63.61
2023-02-06T23:25:30.552Z,62.09
2023-02-06T23:30:33.288Z,60.61
2023-02-06T23:35:38.044Z,56.12
2023-02-06T23:40:40.754Z,56.39
2023-02-06T23:45:46.017Z,58.36
2023-02-06T23:50:48.511Z,59.80
2023-02-06T23:55:51.265Z,68.84
